sensor_id;sensor_type;location;lat;lon;timestamp;temperature;humidity
28247;DHT22;66191;53.178;22.058;2023-03-20T00:00:15;8.50;89.40
28247;DHT22;66191;53.178;22.058;2023-03-20T00:03:08;8.50;89.40
28247;DHT22;66191;53.178;22.058;2023-03-20T00:05:39;8.50;89.50
28247;DHT22;66191;53.178;22.058;2023-03-20T00:08:10;8.50;89.80
28247;DHT22;66191;53.178;22.058;2023-03-20T00:10:43;8.50;90.00
28247;DHT22;66191;53.178;22.058;2023-03-20T00:13:20;8.50;90.00
28247;DHT22;66191;53.178;22.058;2023-03-20T00:15:53;8.40;90.00
28247;DHT22;66191;53.178;22.058;2023-03-20T00:18:24;8.40;90.10
28247;DHT22;66191;53.178;22.058;2023-03-20T00:20:55;8.40;90.20
28247;DHT22;66191;53.178;22.058;2023-03-20T00:23:26;8.40;90.30
28247;DHT22;66191;53.178;22.058;2023-03-20T00:25:59;8.40;90.40
28247;DHT22;66191;53.178;22.058;2023-03-20T00:28:34;8.30;90.50
28247;DHT22;66191;53.178;22.058;2023-03-20T00:31:13;8.30;90.50
28247;DHT22;66191;53.178;22.058;2023-03-20T00:33:45;8.30;90.60
28247;DHT22;66191;53.178;22.058;2023-03-20T00:36:16;8.30;90.60
28247;DHT22;66191;53.178;22.058;2023-03-20T00:38:48;8.30;90.70
28247;DHT22;66191;53.178;22.058;2023-03-20T00:41:23;8.30;90.80
28247;DHT22;66191;53.178;22.058;2023-03-20T00:43:57;8.30;90.80
28247;DHT22;66191;53.178;22.058;2023-03-20T00:46:28;8.20;90.80
28247;DHT22;66191;53.178;22.058;2023-03-20T00:49:02;8.30;90.90
28247;DHT22;66191;53.178;22.058;2023-03-20T00:51:32;8.20;91.00
28247;DHT22;66191;53.178;22.058;2023-03-20T00:54:05;8.20;91.40
28247;DHT22;66191;53.178;22.058;2023-03-20T00:56:43;8.20;91.20
28247;DHT22;66191;53.178;22.058;2023-03-20T00:59:15;8.10;91.20
28247;DHT22;66191;53.178;22.058;2023-03-20T01:01:46;8.00;91.30
28247;DHT22;66191;53.178;22.058;2023-03-20T01:04:18;8.00;91.40
28247;DHT22;66191;53.178;22.058;2023-03-20T01:06:50;8.00;91.50
28247;DHT22;66191;53.178;22.058;2023-03-20T01:09:21;7.90;91.60
28247;DHT22;66191;53.178;22.058;2023-03-20T01:11:54;7.90;91.60
28247;DHT22;66191;53.178;22.058;2023-03-20T01:14:25;7.90;91.80
28247;DHT22;66191;53.178;22.058;2023-03-20T01:16:56;7.90;91.80
28247;DHT22;66191;53.178;22.058;2023-03-20T01:19:27;7.80;91.80
28247;DHT22;66191;53.178;22.058;2023-03-20T01:21:58;7.80;91.90
28247;DHT22;66191;53.178;22.058;2023-03-20T01:24:29;7.80;92.30
28247;DHT22;66191;53.178;22.058;2023-03-20T01:27:04;7.80;92.00
28247;DHT22;66191;53.178;22.058;2023-03-20T01:29:35;7.80;91.90
28247;DHT22;66191;53.178;22.058;2023-03-20T01:32:07;7.80;92.10
28247;DHT22;66191;53.178;22.058;2023-03-20T01:34:39;7.70;92.20
28247;DHT22;66191;53.178;22.058;2023-03-20T01:37:11;7.70;92.20
28247;DHT22;66191;53.178;22.058;2023-03-20T01:39:43;7.70;92.30
28247;DHT22;66191;53.178;22.058;2023-03-20T01:42:16;7.60;92.30
28247;DHT22;66191;53.178;22.058;2023-03-20T01:44:48;7.60;92.40
28247;DHT22;66191;53.178;22.058;2023-03-20T01:47:20;7.60;92.40
28247;DHT22;66191;53.178;22.058;2023-03-20T01:52:41;7.50;92.40
28247;DHT22;66191;53.178;22.058;2023-03-20T01:55:12;7.50;92.40
28247;DHT22;66191;53.178;22.058;2023-03-20T01:57:49;7.50;92.40
28247;DHT22;66191;53.178;22.058;2023-03-20T02:00:20;7.50;92.50
28247;DHT22;66191;53.178;22.058;2023-03-20T02:02:51;7.50;92.30
28247;DHT22;66191;53.178;22.058;2023-03-20T02:05:49;7.40;92.40
28247;DHT22;66191;53.178;22.058;2023-03-20T02:08:22;7.40;92.30
28247;DHT22;66191;53.178;22.058;2023-03-20T02:10:57;7.40;92.40
28247;DHT22;66191;53.178;22.058;2023-03-20T02:13:33;7.30;92.40
28247;DHT22;66191;53.178;22.058;2023-03-20T02:16:05;7.30;92.50
28247;DHT22;66191;53.178;22.058;2023-03-20T02:18:55;7.30;92.70
28247;DHT22;66191;53.178;22.058;2023-03-20T02:21:35;7.20;92.70
28247;DHT22;66191;53.178;22.058;2023-03-20T02:24:32;7.20;92.60
28247;DHT22;66191;53.178;22.058;2023-03-20T02:27:08;7.20;92.50
28247;DHT22;66191;53.178;22.058;2023-03-20T02:29:51;7.20;92.60
28247;DHT22;66191;53.178;22.058;2023-03-20T02:32:41;7.10;92.80
28247;DHT22;66191;53.178;22.058;2023-03-20T02:38:13;7.00;93.00
28247;DHT22;66191;53.178;22.058;2023-03-20T02:40:47;7.00;93.30
28247;DHT22;66191;53.178;22.058;2023-03-20T02:43:24;6.90;93.40
28247;DHT22;66191;53.178;22.058;2023-03-20T02:45:58;6.80;93.70
28247;DHT22;66191;53.178;22.058;2023-03-20T02:48:37;6.70;93.70
28247;DHT22;66191;53.178;22.058;2023-03-20T02:51:10;6.70;93.90
28247;DHT22;66191;53.178;22.058;2023-03-20T02:53:48;6.60;93.80
28247;DHT22;66191;53.178;22.058;2023-03-20T02:56:23;6.60;94.00
28247;DHT22;66191;53.178;22.058;2023-03-20T02:59:00;6.60;94.10
28247;DHT22;66191;53.178;22.058;2023-03-20T03:01:32;6.60;94.20
28247;DHT22;66191;53.178;22.058;2023-03-20T03:04:07;6.50;94.20
28247;DHT22;66191;53.178;22.058;2023-03-20T03:06:39;6.50;94.30
28247;DHT22;66191;53.178;22.058;2023-03-20T03:09:16;6.40;94.20
28247;DHT22;66191;53.178;22.058;2023-03-20T03:11:49;6.40;94.40
28247;DHT22;66191;53.178;22.058;2023-03-20T03:14:27;6.40;94.60
28247;DHT22;66191;53.178;22.058;2023-03-20T03:16:59;6.30;94.60
28247;DHT22;66191;53.178;22.058;2023-03-20T03:19:33;6.30;94.60
28247;DHT22;66191;53.178;22.058;2023-03-20T03:22:05;6.30;94.50
28247;DHT22;66191;53.178;22.058;2023-03-20T03:24:41;6.30;94.60
28247;DHT22;66191;53.178;22.058;2023-03-20T03:27:14;6.30;94.60
28247;DHT22;66191;53.178;22.058;2023-03-20T03:29:48;6.30;94.50
28247;DHT22;66191;53.178;22.058;2023-03-20T03:32:22;6.30;94.50
28247;DHT22;66191;53.178;22.058;2023-03-20T03:34:54;6.30;94.60
28247;DHT22;66191;53.178;22.058;2023-03-20T03:37:27;6.30;94.70
28247;DHT22;66191;53.178;22.058;2023-03-20T03:40:06;6.30;94.70
28247;DHT22;66191;53.178;22.058;2023-03-20T03:42:38;6.20;94.60
28247;DHT22;66191;53.178;22.058;2023-03-20T03:45:12;6.20;94.80
28247;DHT22;66191;53.178;22.058;2023-03-20T03:47:45;6.10;94.90
28247;DHT22;66191;53.178;22.058;2023-03-20T03:50:19;6.10;94.90
28247;DHT22;66191;53.178;22.058;2023-03-20T03:52:58;6.00;95.10
28247;DHT22;66191;53.178;22.058;2023-03-20T03:55:36;6.00;95.20
28247;DHT22;66191;53.178;22.058;2023-03-20T03:58:10;6.00;95.20
28247;DHT22;66191;53.178;22.058;2023-03-20T04:00:43;6.00;95.30
28247;DHT22;66191;53.178;22.058;2023-03-20T04:03:16;6.00;95.30
28247;DHT22;66191;53.178;22.058;2023-03-20T04:05:51;6.00;95.30
28247;DHT22;66191;53.178;22.058;2023-03-20T04:08:25;5.90;95.30
28247;DHT22;66191;53.178;22.058;2023-03-20T04:11:01;5.90;95.40
28247;DHT22;66191;53.178;22.058;2023-03-20T04:13:32;5.90;95.50
28247;DHT22;66191;53.178;22.058;2023-03-20T04:16:03;5.90;95.50
28247;DHT22;66191;53.178;22.058;2023-03-20T04:18:34;5.90;95.60
28247;DHT22;66191;53.178;22.058;2023-03-20T04:21:05;5.90;95.60
28247;DHT22;66191;53.178;22.058;2023-03-20T04:23:37;5.90;95.70
28247;DHT22;66191;53.178;22.058;2023-03-20T04:26:10;5.90;96.00
28247;DHT22;66191;53.178;22.058;2023-03-20T04:28:40;5.90;95.60
28247;DHT22;66191;53.178;22.058;2023-03-20T04:31:34;5.90;95.60
28247;DHT22;66191;53.178;22.058;2023-03-20T04:34:36;5.90;95.60
28247;DHT22;66191;53.178;22.058;2023-03-20T04:37:26;6.00;95.70
28247;DHT22;66191;53.178;22.058;2023-03-20T04:40:04;6.00;95.80
28247;DHT22;66191;53.178;22.058;2023-03-20T04:42:39;6.00;95.80
28247;DHT22;66191;53.178;22.058;2023-03-20T04:45:11;5.90;95.70
28247;DHT22;66191;53.178;22.058;2023-03-20T04:47:43;5.90;95.70
28247;DHT22;66191;53.178;22.058;2023-03-20T04:50:15;6.00;95.80
28247;DHT22;66191;53.178;22.058;2023-03-20T04:52:48;6.00;95.80
28247;DHT22;66191;53.178;22.058;2023-03-20T04:55:19;6.00;96.00
28247;DHT22;66191;53.178;22.058;2023-03-20T04:57:52;6.00;95.90
28247;DHT22;66191;53.178;22.058;2023-03-20T05:00:25;6.00;95.90
28247;DHT22;66191;53.178;22.058;2023-03-20T05:02:56;6.00;95.90
28247;DHT22;66191;53.178;22.058;2023-03-20T05:05:27;6.00;95.90
28247;DHT22;66191;53.178;22.058;2023-03-20T05:07:58;6.10;96.00
28247;DHT22;66191;53.178;22.058;2023-03-20T05:10:32;6.10;95.90
28247;DHT22;66191;53.178;22.058;2023-03-20T05:13:13;6.10;95.90
28247;DHT22;66191;53.178;22.058;2023-03-20T05:16:17;6.10;95.80
28247;DHT22;66191;53.178;22.058;2023-03-20T05:19:04;6.20;95.90
28247;DHT22;66191;53.178;22.058;2023-03-20T05:21:48;6.20;95.70
28247;DHT22;66191;53.178;22.058;2023-03-20T05:24:37;6.20;95.70
28247;DHT22;66191;53.178;22.058;2023-03-20T05:27:17;6.30;95.70
28247;DHT22;66191;53.178;22.058;2023-03-20T05:30:07;6.30;95.60
28247;DHT22;66191;53.178;22.058;2023-03-20T05:32:57;6.30;95.70
28247;DHT22;66191;53.178;22.058;2023-03-20T05:35:28;6.40;95.60
28247;DHT22;66191;53.178;22.058;2023-03-20T05:38:12;6.40;95.40
28247;DHT22;66191;53.178;22.058;2023-03-20T05:40:55;6.50;95.50
28247;DHT22;66191;53.178;22.058;2023-03-20T05:43:38;6.60;95.60
28247;DHT22;66191;53.178;22.058;2023-03-20T05:46:32;6.60;95.60
28247;DHT22;66191;53.178;22.058;2023-03-20T05:49:35;6.70;95.60
28247;DHT22;66191;53.178;22.058;2023-03-20T05:52:12;6.70;95.40
28247;DHT22;66191;53.178;22.058;2023-03-20T05:54:59;6.80;95.50
28247;DHT22;66191;53.178;22.058;2023-03-20T05:57:39;6.80;95.40
28247;DHT22;66191;53.178;22.058;2023-03-20T06:00:25;6.90;95.20
28247;DHT22;66191;53.178;22.058;2023-03-20T06:03:36;6.90;95.10
28247;DHT22;66191;53.178;22.058;2023-03-20T06:06:13;7.00;94.90
28247;DHT22;66191;53.178;22.058;2023-03-20T06:08:48;7.00;95.00
28247;DHT22;66191;53.178;22.058;2023-03-20T06:11:19;7.10;95.10
28247;DHT22;66191;53.178;22.058;2023-03-20T06:13:50;7.20;95.00
28247;DHT22;66191;53.178;22.058;2023-03-20T06:16:26;7.20;94.90
28247;DHT22;66191;53.178;22.058;2023-03-20T06:19:00;7.30;94.90
28247;DHT22;66191;53.178;22.058;2023-03-20T06:21:31;7.20;94.80
28247;DHT22;66191;53.178;22.058;2023-03-20T06:24:03;7.30;94.90
28247;DHT22;66191;53.178;22.058;2023-03-20T06:26:33;7.30;95.00
28247;DHT22;66191;53.178;22.058;2023-03-20T06:29:09;7.40;95.00
28247;DHT22;66191;53.178;22.058;2023-03-20T06:31:40;7.50;94.80
28247;DHT22;66191;53.178;22.058;2023-03-20T06:34:24;7.60;94.40
28247;DHT22;66191;53.178;22.058;2023-03-20T06:36:56;7.60;94.10
28247;DHT22;66191;53.178;22.058;2023-03-20T06:39:29;7.70;94.00
28247;DHT22;66191;53.178;22.058;2023-03-20T06:41:59;7.80;93.80
28247;DHT22;66191;53.178;22.058;2023-03-20T06:44:30;7.80;93.70
28247;DHT22;66191;53.178;22.058;2023-03-20T06:47:17;7.90;92.70
28247;DHT22;66191;53.178;22.058;2023-03-20T06:49:50;8.00;92.50
28247;DHT22;66191;53.178;22.058;2023-03-20T06:52:22;8.10;92.40
28247;DHT22;66191;53.178;22.058;2023-03-20T06:55:16;8.20;92.20
28247;DHT22;66191;53.178;22.058;2023-03-20T06:57:47;8.30;92.10
28247;DHT22;66191;53.178;22.058;2023-03-20T07:00:19;8.40;92.00
28247;DHT22;66191;53.178;22.058;2023-03-20T07:02:50;8.50;91.90
28247;DHT22;66191;53.178;22.058;2023-03-20T07:05:26;8.50;91.60
28247;DHT22;66191;53.178;22.058;2023-03-20T07:07:59;8.60;91.50
28247;DHT22;66191;53.178;22.058;2023-03-20T07:10:31;8.70;91.40
28247;DHT22;66191;53.178;22.058;2023-03-20T07:13:02;8.80;91.00
28247;DHT22;66191;53.178;22.058;2023-03-20T07:15:38;8.90;90.70
28247;DHT22;66191;53.178;22.058;2023-03-20T07:18:31;9.00;90.10
28247;DHT22;66191;53.178;22.058;2023-03-20T07:21:06;9.10;90.00
28247;DHT22;66191;53.178;22.058;2023-03-20T07:23:37;9.20;89.20
28247;DHT22;66191;53.178;22.058;2023-03-20T07:26:08;9.20;89.80
28247;DHT22;66191;53.178;22.058;2023-03-20T07:28:40;9.30;88.60
28247;DHT22;66191;53.178;22.058;2023-03-20T07:31:20;9.40;87.70
28247;DHT22;66191;53.178;22.058;2023-03-20T07:34:00;9.50;87.30
28247;DHT22;66191;53.178;22.058;2023-03-20T07:36:37;9.60;86.90
28247;DHT22;66191;53.178;22.058;2023-03-20T07:39:09;9.70;86.30
28247;DHT22;66191;53.178;22.058;2023-03-20T07:41:46;9.70;86.00
28247;DHT22;66191;53.178;22.058;2023-03-20T07:44:31;9.90;85.70
28247;DHT22;66191;53.178;22.058;2023-03-20T07:47:08;9.90;86.50
28247;DHT22;66191;53.178;22.058;2023-03-20T07:49:40;10.00;85.50
28247;DHT22;66191;53.178;22.058;2023-03-20T07:52:16;10.00;85.10
28247;DHT22;66191;53.178;22.058;2023-03-20T07:54:47;10.10;85.20
28247;DHT22;66191;53.178;22.058;2023-03-20T07:57:20;10.20;84.80
28247;DHT22;66191;53.178;22.058;2023-03-20T07:59:53;10.30;84.40
28247;DHT22;66191;53.178;22.058;2023-03-20T08:02:25;10.40;84.20
28247;DHT22;66191;53.178;22.058;2023-03-20T08:04:58;10.40;83.70
28247;DHT22;66191;53.178;22.058;2023-03-20T08:07:33;10.60;83.70
28247;DHT22;66191;53.178;22.058;2023-03-20T08:10:05;10.60;83.70
28247;DHT22;66191;53.178;22.058;2023-03-20T08:12:39;10.70;82.80
28247;DHT22;66191;53.178;22.058;2023-03-20T08:15:10;10.80;82.80
28247;DHT22;66191;53.178;22.058;2023-03-20T08:17:44;11.00;82.80
28247;DHT22;66191;53.178;22.058;2023-03-20T08:20:16;11.10;82.50
28247;DHT22;66191;53.178;22.058;2023-03-20T08:22:52;11.20;81.50
28247;DHT22;66191;53.178;22.058;2023-03-20T08:25:25;11.40;81.20
28247;DHT22;66191;53.178;22.058;2023-03-20T08:28:01;11.50;80.30
28247;DHT22;66191;53.178;22.058;2023-03-20T08:30:35;11.60;79.40
28247;DHT22;66191;53.178;22.058;2023-03-20T08:33:06;11.70;78.90
28247;DHT22;66191;53.178;22.058;2023-03-20T08:35:38;11.80;78.80
28247;DHT22;66191;53.178;22.058;2023-03-20T08:38:14;11.90;78.80
28247;DHT22;66191;53.178;22.058;2023-03-20T08:40:45;12.00;78.80
28247;DHT22;66191;53.178;22.058;2023-03-20T08:43:20;12.10;78.10
28247;DHT22;66191;53.178;22.058;2023-03-20T08:45:52;12.20;77.90
28247;DHT22;66191;53.178;22.058;2023-03-20T08:48:25;12.30;77.80
28247;DHT22;66191;53.178;22.058;2023-03-20T08:50:59;12.40;77.10
28247;DHT22;66191;53.178;22.058;2023-03-20T08:53:34;12.50;77.20
28247;DHT22;66191;53.178;22.058;2023-03-20T08:56:06;12.70;76.60
28247;DHT22;66191;53.178;22.058;2023-03-20T08:58:39;12.80;76.80
28247;DHT22;66191;53.178;22.058;2023-03-20T09:01:11;13.00;76.60
28247;DHT22;66191;53.178;22.058;2023-03-20T09:03:43;13.10;75.90
28247;DHT22;66191;53.178;22.058;2023-03-20T09:06:15;13.20;74.90
28247;DHT22;66191;53.178;22.058;2023-03-20T09:08:52;13.30;73.70
28247;DHT22;66191;53.178;22.058;2023-03-20T09:11:24;13.40;73.30
28247;DHT22;66191;53.178;22.058;2023-03-20T09:13:56;13.50;73.40
28247;DHT22;66191;53.178;22.058;2023-03-20T09:16:29;13.60;74.00
28247;DHT22;66191;53.178;22.058;2023-03-20T09:19:03;13.60;73.20
28247;DHT22;66191;53.178;22.058;2023-03-20T09:21:35;13.70;73.50
28247;DHT22;66191;53.178;22.058;2023-03-20T09:24:10;13.70;72.80
28247;DHT22;66191;53.178;22.058;2023-03-20T09:26:42;13.70;70.80
28247;DHT22;66191;53.178;22.058;2023-03-20T09:29:13;13.80;70.80
28247;DHT22;66191;53.178;22.058;2023-03-20T09:31:45;13.80;70.50
28247;DHT22;66191;53.178;22.058;2023-03-20T09:34:17;13.80;70.10
28247;DHT22;66191;53.178;22.058;2023-03-20T09:36:48;13.80;70.50
28247;DHT22;66191;53.178;22.058;2023-03-20T09:39:23;13.80;70.30
28247;DHT22;66191;53.178;22.058;2023-03-20T09:41:57;13.80;70.00
28247;DHT22;66191;53.178;22.058;2023-03-20T09:44:35;13.80;67.90
28247;DHT22;66191;53.178;22.058;2023-03-20T09:47:09;13.70;67.70
28247;DHT22;66191;53.178;22.058;2023-03-20T09:49:52;13.80;68.10
28247;DHT22;66191;53.178;22.058;2023-03-20T09:52:29;13.80;68.80
28247;DHT22;66191;53.178;22.058;2023-03-20T09:55:09;13.80;70.10
28247;DHT22;66191;53.178;22.058;2023-03-20T09:57:44;13.80;70.00
28247;DHT22;66191;53.178;22.058;2023-03-20T10:00:17;13.80;70.00
28247;DHT22;66191;53.178;22.058;2023-03-20T10:02:50;13.90;69.50
28247;DHT22;66191;53.178;22.058;2023-03-20T10:05:24;13.90;69.60
28247;DHT22;66191;53.178;22.058;2023-03-20T10:07:57;14.00;69.60
28247;DHT22;66191;53.178;22.058;2023-03-20T10:10:38;14.00;69.50
28247;DHT22;66191;53.178;22.058;2023-03-20T10:13:19;14.00;68.90
28247;DHT22;66191;53.178;22.058;2023-03-20T10:15:58;14.10;68.60
28247;DHT22;66191;53.178;22.058;2023-03-20T10:18:33;14.10;68.50
28247;DHT22;66191;53.178;22.058;2023-03-20T10:21:10;14.20;68.10
28247;DHT22;66191;53.178;22.058;2023-03-20T10:23:48;14.20;68.10
28247;DHT22;66191;53.178;22.058;2023-03-20T10:26:28;14.20;67.80
28247;DHT22;66191;53.178;22.058;2023-03-20T10:29:03;14.30;67.50
28247;DHT22;66191;53.178;22.058;2023-03-20T10:31:40;14.30;67.20
28247;DHT22;66191;53.178;22.058;2023-03-20T10:34:19;14.30;66.50
28247;DHT22;66191;53.178;22.058;2023-03-20T10:36:57;14.40;67.10
28247;DHT22;66191;53.178;22.058;2023-03-20T10:39:40;14.60;67.00
28247;DHT22;66191;53.178;22.058;2023-03-20T10:42:22;14.60;66.80
28247;DHT22;66191;53.178;22.058;2023-03-20T10:44:57;14.70;66.50
28247;DHT22;66191;53.178;22.058;2023-03-20T10:47:32;14.70;65.70
28247;DHT22;66191;53.178;22.058;2023-03-20T10:50:07;14.80;66.30
28247;DHT22;66191;53.178;22.058;2023-03-20T10:52:43;14.80;66.40
28247;DHT22;66191;53.178;22.058;2023-03-20T10:55:17;14.90;66.40
28247;DHT22;66191;53.178;22.058;2023-03-20T10:57:55;15.10;65.60
28247;DHT22;66191;53.178;22.058;2023-03-20T11:00:28;15.20;65.00
28247;DHT22;66191;53.178;22.058;2023-03-20T11:03:00;15.30;64.60
28247;DHT22;66191;53.178;22.058;2023-03-20T11:05:31;15.40;64.20
28247;DHT22;66191;53.178;22.058;2023-03-20T11:08:05;15.50;63.90
28247;DHT22;66191;53.178;22.058;2023-03-20T11:10:41;15.50;63.10
28247;DHT22;66191;53.178;22.058;2023-03-20T11:13:26;15.60;63.10
28247;DHT22;66191;53.178;22.058;2023-03-20T11:16:07;15.70;62.90
28247;DHT22;66191;53.178;22.058;2023-03-20T11:18:40;15.70;63.00
28247;DHT22;66191;53.178;22.058;2023-03-20T11:21:14;15.80;62.30
28247;DHT22;66191;53.178;22.058;2023-03-20T11:23:47;15.80;61.40
28247;DHT22;66191;53.178;22.058;2023-03-20T11:26:29;15.90;60.60
28247;DHT22;66191;53.178;22.058;2023-03-20T11:29:07;16.00;60.30
28247;DHT22;66191;53.178;22.058;2023-03-20T11:31:41;16.00;59.90
28247;DHT22;66191;53.178;22.058;2023-03-20T11:34:21;16.10;60.20
28247;DHT22;66191;53.178;22.058;2023-03-20T11:36:56;16.20;60.10
28247;DHT22;66191;53.178;22.058;2023-03-20T11:39:51;16.30;60.00
28247;DHT22;66191;53.178;22.058;2023-03-20T11:42:23;16.30;59.10
28247;DHT22;66191;53.178;22.058;2023-03-20T11:45:03;16.40;58.20
28247;DHT22;66191;53.178;22.058;2023-03-20T11:47:35;16.40;58.50
28247;DHT22;66191;53.178;22.058;2023-03-20T11:50:13;16.40;58.10
28247;DHT22;66191;53.178;22.058;2023-03-20T11:52:54;16.40;58.40
28247;DHT22;66191;53.178;22.058;2023-03-20T11:55:27;16.40;58.40
28247;DHT22;66191;53.178;22.058;2023-03-20T11:58:00;16.40;58.60
28247;DHT22;66191;53.178;22.058;2023-03-20T12:00:37;16.40;58.40
28247;DHT22;66191;53.178;22.058;2023-03-20T12:05:59;16.40;57.70
28247;DHT22;66191;53.178;22.058;2023-03-20T12:08:31;16.30;58.30
28247;DHT22;66191;53.178;22.058;2023-03-20T12:11:07;16.30;58.60
28247;DHT22;66191;53.178;22.058;2023-03-20T12:13:46;16.30;58.70
28247;DHT22;66191;53.178;22.058;2023-03-20T12:16:21;16.30;58.90
28247;DHT22;66191;53.178;22.058;2023-03-20T12:18:55;16.20;58.20
28247;DHT22;66191;53.178;22.058;2023-03-20T12:21:32;16.30;58.70
28247;DHT22;66191;53.178;22.058;2023-03-20T12:24:07;16.30;59.20
28247;DHT22;66191;53.178;22.058;2023-03-20T12:26:41;16.30;59.70
28247;DHT22;66191;53.178;22.058;2023-03-20T12:29:16;16.30;59.70
28247;DHT22;66191;53.178;22.058;2023-03-20T12:31:52;16.40;59.90
28247;DHT22;66191;53.178;22.058;2023-03-20T12:34:25;16.40;59.50
28247;DHT22;66191;53.178;22.058;2023-03-20T12:36:57;16.40;59.20
28247;DHT22;66191;53.178;22.058;2023-03-20T12:39:30;16.50;59.60
28247;DHT22;66191;53.178;22.058;2023-03-20T12:42:06;16.60;60.00
28247;DHT22;66191;53.178;22.058;2023-03-20T12:44:39;16.60;59.40
28247;DHT22;66191;53.178;22.058;2023-03-20T12:47:17;16.60;59.10
28247;DHT22;66191;53.178;22.058;2023-03-20T12:49:53;16.70;59.80
28247;DHT22;66191;53.178;22.058;2023-03-20T12:52:29;16.70;59.40
28247;DHT22;66191;53.178;22.058;2023-03-20T12:55:15;16.80;59.50
28247;DHT22;66191;53.178;22.058;2023-03-20T12:57:51;16.80;60.00
28247;DHT22;66191;53.178;22.058;2023-03-20T13:00:26;16.80;59.60
28247;DHT22;66191;53.178;22.058;2023-03-20T13:03:05;16.80;59.80
28247;DHT22;66191;53.178;22.058;2023-03-20T13:05:42;16.90;60.70
28247;DHT22;66191;53.178;22.058;2023-03-20T13:11:01;16.90;61.30
28247;DHT22;66191;53.178;22.058;2023-03-20T13:13:36;17.00;61.20
28247;DHT22;66191;53.178;22.058;2023-03-20T13:16:11;16.90;61.50
28247;DHT22;66191;53.178;22.058;2023-03-20T13:18:49;16.90;61.80
28247;DHT22;66191;53.178;22.058;2023-03-20T13:21:23;16.90;62.60
28247;DHT22;66191;53.178;22.058;2023-03-20T13:23:58;16.90;63.20
28247;DHT22;66191;53.178;22.058;2023-03-20T13:26:34;16.90;63.60
28247;DHT22;66191;53.178;22.058;2023-03-20T13:29:07;16.80;63.30
28247;DHT22;66191;53.178;22.058;2023-03-20T13:31:44;16.80;64.50
28247;DHT22;66191;53.178;22.058;2023-03-20T13:34:26;16.70;63.80
28247;DHT22;66191;53.178;22.058;2023-03-20T13:37:02;16.60;64.00
28247;DHT22;66191;53.178;22.058;2023-03-20T13:39:58;16.60;65.00
28247;DHT22;66191;53.178;22.058;2023-03-20T13:42:33;16.60;65.30
28247;DHT22;66191;53.178;22.058;2023-03-20T13:45:11;16.50;65.20
28247;DHT22;66191;53.178;22.058;2023-03-20T13:47:49;16.50;65.50
28247;DHT22;66191;53.178;22.058;2023-03-20T13:50:26;16.40;65.80
28247;DHT22;66191;53.178;22.058;2023-03-20T13:53:05;16.50;65.80
28247;DHT22;66191;53.178;22.058;2023-03-20T13:55:40;16.40;65.90
28247;DHT22;66191;53.178;22.058;2023-03-20T13:58:18;16.30;66.10
28247;DHT22;66191;53.178;22.058;2023-03-20T14:00:53;16.30;66.20
28247;DHT22;66191;53.178;22.058;2023-03-20T14:03:28;16.20;66.70
28247;DHT22;66191;53.178;22.058;2023-03-20T14:06:17;16.10;67.10
28247;DHT22;66191;53.178;22.058;2023-03-20T14:09:23;16.10;67.40
28247;DHT22;66191;53.178;22.058;2023-03-20T14:11:58;16.00;67.50
28247;DHT22;66191;53.178;22.058;2023-03-20T14:14:31;16.00;67.50
28247;DHT22;66191;53.178;22.058;2023-03-20T14:17:07;16.00;68.10
28247;DHT22;66191;53.178;22.058;2023-03-20T14:19:39;15.90;68.60
28247;DHT22;66191;53.178;22.058;2023-03-20T14:22:18;15.90;69.50
28247;DHT22;66191;53.178;22.058;2023-03-20T14:24:53;15.80;70.00
28247;DHT22;66191;53.178;22.058;2023-03-20T14:27:26;15.70;70.40
28247;DHT22;66191;53.178;22.058;2023-03-20T14:32:59;15.70;70.10
28247;DHT22;66191;53.178;22.058;2023-03-20T14:35:34;15.60;70.80
28247;DHT22;66191;53.178;22.058;2023-03-20T14:40:59;15.60;70.80
28247;DHT22;66191;53.178;22.058;2023-03-20T14:43:41;15.50;70.80
28247;DHT22;66191;53.178;22.058;2023-03-20T14:46:20;15.50;71.20
28247;DHT22;66191;53.178;22.058;2023-03-20T14:48:54;15.50;71.60
28247;DHT22;66191;53.178;22.058;2023-03-20T14:51:29;15.40;72.00
28247;DHT22;66191;53.178;22.058;2023-03-20T14:56:52;15.40;72.50
28247;DHT22;66191;53.178;22.058;2023-03-20T14:59:24;15.30;72.40
28247;DHT22;66191;53.178;22.058;2023-03-20T15:01:56;15.30;72.60
28247;DHT22;66191;53.178;22.058;2023-03-20T15:04:33;15.30;72.80
28247;DHT22;66191;53.178;22.058;2023-03-20T15:07:09;15.30;73.10
28247;DHT22;66191;53.178;22.058;2023-03-20T15:09:44;15.20;73.50
28247;DHT22;66191;53.178;22.058;2023-03-20T15:12:19;15.10;74.10
28247;DHT22;66191;53.178;22.058;2023-03-20T15:14:54;15.10;74.70
28247;DHT22;66191;53.178;22.058;2023-03-20T15:17:27;15.10;76.50
28247;DHT22;66191;53.178;22.058;2023-03-20T15:20:01;15.00;76.70
28247;DHT22;66191;53.178;22.058;2023-03-20T15:22:34;15.00;78.90
28247;DHT22;66191;53.178;22.058;2023-03-20T15:25:18;14.90;79.70
28247;DHT22;66191;53.178;22.058;2023-03-20T15:27:53;14.90;79.90
28247;DHT22;66191;53.178;22.058;2023-03-20T15:30:35;14.70;81.20
28247;DHT22;66191;53.178;22.058;2023-03-20T15:33:09;14.60;80.50
28247;DHT22;66191;53.178;22.058;2023-03-20T15:35:43;14.40;80.50
28247;DHT22;66191;53.178;22.058;2023-03-20T15:38:16;14.30;81.30
28247;DHT22;66191;53.178;22.058;2023-03-20T15:40:48;14.20;82.30
28247;DHT22;66191;53.178;22.058;2023-03-20T15:43:23;14.10;83.80
28247;DHT22;66191;53.178;22.058;2023-03-20T15:45:55;14.00;85.70
28247;DHT22;66191;53.178;22.058;2023-03-20T15:48:48;13.90;86.90
28247;DHT22;66191;53.178;22.058;2023-03-20T15:51:25;13.80;88.90
28247;DHT22;66191;53.178;22.058;2023-03-20T15:53:58;13.80;90.60
28247;DHT22;66191;53.178;22.058;2023-03-20T15:56:36;13.70;91.40
28247;DHT22;66191;53.178;22.058;2023-03-20T15:59:15;13.70;92.10
28247;DHT22;66191;53.178;22.058;2023-03-20T16:01:49;13.60;92.40
28247;DHT22;66191;53.178;22.058;2023-03-20T16:04:22;13.50;92.70
28247;DHT22;66191;53.178;22.058;2023-03-20T16:06:56;13.50;93.30
28247;DHT22;66191;53.178;22.058;2023-03-20T16:09:29;13.40;93.80
28247;DHT22;66191;53.178;22.058;2023-03-20T16:12:01;13.40;93.90
28247;DHT22;66191;53.178;22.058;2023-03-20T16:14:36;13.30;94.30
28247;DHT22;66191;53.178;22.058;2023-03-20T16:17:13;13.20;94.60
28247;DHT22;66191;53.178;22.058;2023-03-20T16:19:44;13.20;95.00
28247;DHT22;66191;53.178;22.058;2023-03-20T16:22:20;13.20;95.30
28247;DHT22;66191;53.178;22.058;2023-03-20T16:24:55;13.10;95.60
28247;DHT22;66191;53.178;22.058;2023-03-20T16:27:28;13.10;95.80
28247;DHT22;66191;53.178;22.058;2023-03-20T16:30:05;13.00;96.20
28247;DHT22;66191;53.178;22.058;2023-03-20T16:32:38;13.00;96.40
28247;DHT22;66191;53.178;22.058;2023-03-20T16:35:12;13.00;96.70